createdAt,value
2019-05-26T00:00:36.637Z,26.63
2019-05-26T00:03:07.782Z,27.40
2019-05-26T00:05:38.734Z,25.95
2019-05-26T00:08:09.720Z,25.63
2019-05-26T00:10:41.368Z,26.20
2019-05-26T00:13:12.403Z,24.93
2019-05-26T00:15:43.522Z,26.30
2019-05-26T00:18:14.511Z,28.53
2019-05-26T00:20:45.648Z,26.37
2019-05-26T00:23:16.643Z,28.80
2019-05-26T00:25:47.708Z,29.07
2019-05-26T00:28:18.835Z,29.90
2019-05-26T00:30:49.805Z,30.73
2019-05-26T00:33:20.930Z,31.27
2019-05-26T00:35:52.224Z,31.10
2019-05-26T00:38:23.295Z,30.23
2019-05-26T00:40:54.393Z,32.50
2019-05-26T00:43:25.376Z,34.80
2019-05-26T00:45:56.928Z,31.20
2019-05-26T00:48:28.072Z,34.53
2019-05-26T00:50:59.152Z,32.70
2019-05-26T00:53:30.305Z,33.63
2019-05-26T00:56:01.440Z,32.70
2019-05-26T00:58:32.508Z,33.10
2019-05-26T01:01:07.102Z,32.33
2019-05-26T01:03:38.246Z,31.68
2019-05-26T01:06:09.429Z,31.40
2019-05-26T01:08:40.532Z,31.13
2019-05-26T01:11:11.953Z,30.27
2019-05-26T01:13:42.963Z,29.43
2019-05-26T01:16:14.036Z,28.60
2019-05-26T01:18:45.069Z,29.80
2019-05-26T01:21:16.155Z,28.47
2019-05-26T01:23:47.299Z,29.07
2019-05-26T01:26:18.453Z,26.70
2019-05-26T01:28:50.792Z,26.67
2019-05-26T01:31:22.002Z,24.73
2019-05-26T01:33:53.229Z,24.17
2019-05-26T01:36:24.372Z,25.00
2019-05-26T01:38:55.726Z,24.07
2019-05-26T01:41:26.830Z,24.13
2019-05-26T01:43:57.970Z,23.43
2019-05-26T01:46:29.058Z,23.47
2019-05-26T01:49:00.154Z,23.83
2019-05-26T01:51:31.202Z,25.67
2019-05-26T01:54:02.363Z,26.03
2019-05-26T01:56:33.421Z,25.70
2019-05-26T01:59:04.640Z,24.67
2019-05-26T02:01:35.842Z,24.40
2019-05-26T02:04:07.136Z,26.65
2019-05-26T02:06:38.381Z,26.93
2019-05-26T02:09:09.662Z,26.67
2019-05-26T02:11:40.690Z,26.53
2019-05-26T02:14:14.448Z,29.50
2019-05-26T02:16:44.871Z,30.03
2019-05-26T02:19:16.015Z,27.73
2019-05-26T02:21:47.125Z,27.50
2019-05-26T02:24:18.231Z,26.65
2019-05-26T02:26:49.350Z,27.10
2019-05-26T02:29:20.478Z,24.95
2019-05-26T02:31:51.538Z,27.30
2019-05-26T02:34:22.671Z,29.10
2019-05-26T02:36:54.932Z,26.52
2019-05-26T02:39:26.159Z,27.80
2019-05-26T02:41:57.231Z,25.25
2019-05-26T02:44:28.204Z,27.40
2019-05-26T02:46:59.216Z,27.48
2019-05-26T02:49:30.259Z,29.07
2019-05-26T02:52:01.487Z,31.90
2019-05-26T02:54:32.667Z,31.48
2019-05-26T02:57:03.817Z,30.25
2019-05-26T02:59:34.809Z,28.73
2019-05-26T03:02:06.258Z,25.62
2019-05-26T03:04:37.405Z,29.52
2019-05-26T03:07:09.101Z,24.52
2019-05-26T03:09:40.299Z,26.35
2019-05-26T03:12:11.927Z,24.45
2019-05-26T03:14:44.676Z,33.18
2019-05-26T03:17:19.342Z,29.80
2019-05-26T03:19:51.818Z,30.85
2019-05-26T03:22:23.917Z,31.70
2019-05-26T03:24:54.965Z,34.35
2019-05-26T03:27:26.094Z,30.95
2019-05-26T03:29:57.118Z,30.30
2019-05-26T03:32:28.208Z,29.92
2019-05-26T03:34:59.152Z,29.95
2019-05-26T03:37:30.566Z,29.32
2019-05-26T03:40:03.010Z,27.62
2019-05-26T03:42:34.083Z,28.15
2019-05-26T03:45:06.895Z,29.57
2019-05-26T03:47:37.974Z,29.55
2019-05-26T03:50:09.140Z,30.12
2019-05-26T03:52:40.150Z,30.20
2019-05-26T03:55:11.695Z,31.37
2019-05-26T03:57:42.721Z,31.10
2019-05-26T04:00:14.190Z,31.73
2019-05-26T04:02:46.743Z,32.50
2019-05-26T04:05:17.919Z,32.90
2019-05-26T04:07:49.058Z,32.95
2019-05-26T04:10:21.849Z,34.83
2019-05-26T04:12:53.029Z,35.00
2019-05-26T04:15:24.261Z,35.20
2019-05-26T04:17:55.290Z,35.85
2019-05-26T04:20:26.722Z,36.95
2019-05-26T04:22:57.967Z,35.52
2019-05-26T04:25:28.988Z,34.78
2019-05-26T04:28:01.505Z,33.53
2019-05-26T04:30:32.482Z,34.60
2019-05-26T04:33:03.571Z,37.95
2019-05-26T04:35:34.626Z,36.85
2019-05-26T04:38:05.744Z,40.35
2019-05-26T04:40:38.920Z,39.55
2019-05-26T04:43:14.498Z,39.83
2019-05-26T04:45:42.696Z,38.25
2019-05-26T04:48:14.047Z,36.28
2019-05-26T04:50:45.201Z,36.05
2019-05-26T04:53:16.234Z,38.92
2019-05-26T04:55:47.242Z,32.03
2019-05-26T04:58:18.350Z,30.12
2019-05-26T05:00:49.456Z,27.32
2019-05-26T05:03:20.607Z,26.82
2019-05-26T05:05:51.771Z,24.18
2019-05-26T05:08:22.871Z,22.73
2019-05-26T05:10:54.118Z,22.27
2019-05-26T05:13:25.326Z,18.10
2019-05-26T05:15:56.363Z,17.85
2019-05-26T05:18:27.403Z,17.02
2019-05-26T05:20:58.407Z,15.80
2019-05-26T05:23:29.541Z,14.33
2019-05-26T05:26:00.657Z,15.55
2019-05-26T05:28:31.717Z,15.18
2019-05-26T05:31:02.749Z,15.58
2019-05-26T05:33:33.747Z,14.38
2019-05-26T05:36:04.736Z,15.38
2019-05-26T05:38:35.756Z,14.45
2019-05-26T05:41:06.796Z,15.40
2019-05-26T05:43:37.854Z,16.55
2019-05-26T05:46:08.945Z,10.90
2019-05-26T05:48:39.960Z,10.48
2019-05-26T05:51:11.055Z,11.48
2019-05-26T05:53:42.176Z,9.83
2019-05-26T05:56:13.272Z,9.38
2019-05-26T05:58:44.354Z,10.10
2019-05-26T06:01:15.470Z,9.33
2019-05-26T06:03:46.564Z,8.33
2019-05-26T06:06:17.792Z,6.62
2019-05-26T06:08:51.400Z,6.65
2019-05-26T06:11:24.445Z,6.70
2019-05-26T06:13:56.726Z,6.22
2019-05-26T06:16:29.637Z,6.97
2019-05-26T06:19:00.990Z,8.10
2019-05-26T06:21:32.250Z,6.97
2019-05-26T06:24:04.900Z,6.80
2019-05-26T06:26:36.304Z,6.72
2019-05-26T06:29:13.980Z,6.30
2019-05-26T06:31:45.542Z,5.95
2019-05-26T06:34:26.653Z,6.10
2019-05-26T06:36:56.158Z,6.55
2019-05-26T06:39:27.806Z,6.53
2019-05-26T06:41:59.798Z,7.37
2019-05-26T06:44:30.837Z,5.70
2019-05-26T06:47:01.924Z,7.25
2019-05-26T06:49:33.035Z,6.35
2019-05-26T06:52:04.253Z,6.50
2019-05-26T06:54:35.318Z,6.47
2019-05-26T06:57:06.422Z,6.50
2019-05-26T06:59:37.499Z,6.45
2019-05-26T07:02:08.464Z,6.47
2019-05-26T07:04:39.520Z,5.70
2019-05-26T07:07:10.616Z,6.58
2019-05-26T07:09:41.627Z,7.03
2019-05-26T07:12:12.598Z,7.35
2019-05-26T07:14:43.810Z,6.60
2019-05-26T07:17:14.812Z,8.13
2019-05-26T07:19:45.917Z,9.03
2019-05-26T07:22:17.228Z,8.78
2019-05-26T07:24:48.367Z,8.13
2019-05-26T07:27:19.572Z,7.67
2019-05-26T07:29:54.431Z,7.08
2019-05-26T07:32:31.040Z,6.85
2019-05-26T07:35:02.073Z,8.18
2019-05-26T07:37:33.208Z,9.20
2019-05-26T07:40:04.967Z,8.58
2019-05-26T07:42:36.203Z,8.50
2019-05-26T07:45:08.141Z,9.00
2019-05-26T07:47:39.484Z,9.40
2019-05-26T07:50:13.214Z,9.45
2019-05-26T07:52:46.900Z,11.20
2019-05-26T07:55:18.762Z,9.15
2019-05-26T07:57:50.090Z,7.97
2019-05-26T08:00:28.036Z,7.97
2019-05-26T08:02:59.100Z,8.25
2019-05-26T08:05:30.186Z,8.20
2019-05-26T08:08:12.233Z,9.30
2019-05-26T08:10:34.864Z,8.35
2019-05-26T08:13:07.924Z,8.70
2019-05-26T08:15:39.993Z,7.60
2019-05-26T08:18:12.261Z,7.95
2019-05-26T08:20:43.694Z,7.70
2019-05-26T08:23:15.050Z,7.70
2019-05-26T08:25:46.108Z,7.78
2019-05-26T08:28:17.249Z,8.70
2019-05-26T08:30:48.260Z,7.53
2019-05-26T08:33:19.249Z,7.30
2019-05-26T08:35:50.259Z,6.80
2019-05-26T08:38:21.301Z,7.00
2019-05-26T08:40:52.254Z,7.47
2019-05-26T08:43:23.274Z,8.00
2019-05-26T08:45:54.277Z,7.22
2019-05-26T08:48:25.322Z,7.00
2019-05-26T08:50:56.544Z,5.90
2019-05-26T08:53:27.521Z,5.53
2019-05-26T08:55:58.505Z,5.30
2019-05-26T08:58:29.684Z,6.95
2019-05-26T09:01:00.809Z,7.40
2019-05-26T09:03:31.870Z,12.33
2019-05-26T09:06:02.888Z,9.18
2019-05-26T09:08:34.006Z,6.30
2019-05-26T09:11:05.117Z,5.83
2019-05-26T09:13:36.100Z,5.35
2019-05-26T09:16:07.333Z,6.20
2019-05-26T09:18:38.304Z,6.78
2019-05-26T09:21:09.213Z,6.60
2019-05-26T09:23:40.543Z,6.80
2019-05-26T09:26:11.531Z,7.15
2019-05-26T09:28:43.428Z,8.38
2019-05-26T09:31:14.434Z,7.15
2019-05-26T09:33:45.695Z,7.03
2019-05-26T09:36:17.999Z,6.78
2019-05-26T09:38:50.543Z,7.28
2019-05-26T09:41:21.443Z,7.35
2019-05-26T09:43:52.364Z,7.67
2019-05-26T09:46:23.417Z,7.70
2019-05-26T09:48:54.488Z,7.87
2019-05-26T09:51:25.794Z,8.30
2019-05-26T09:54:01.837Z,9.18
2019-05-26T09:56:40.152Z,9.03
2019-05-26T09:59:12.891Z,8.13
2019-05-26T10:01:43.927Z,7.62
2019-05-26T10:04:15.626Z,6.62
2019-05-26T10:06:46.620Z,6.20
2019-05-26T10:09:17.614Z,6.50
2019-05-26T10:11:48.668Z,7.10
2019-05-26T10:14:19.833Z,7.03
2019-05-26T10:16:51.015Z,8.15
2019-05-26T10:19:22.137Z,6.90
2019-05-26T10:21:59.904Z,6.97
2019-05-26T10:24:38.521Z,6.65
2019-05-26T10:27:09.610Z,6.87
2019-05-26T10:29:42.389Z,8.08
2019-05-26T10:32:16.260Z,6.22
2019-05-26T10:34:48.193Z,6.20
2019-05-26T10:37:20.870Z,6.62
2019-05-26T10:39:55.010Z,6.50
2019-05-26T10:42:26.029Z,6.20
2019-05-26T10:44:56.988Z,8.28
2019-05-26T10:47:27.960Z,5.72
2019-05-26T10:49:58.952Z,6.70
2019-05-26T10:52:29.885Z,7.22
2019-05-26T10:55:00.963Z,6.85
2019-05-26T10:57:32.021Z,7.72
2019-05-26T11:00:03.116Z,8.53
2019-05-26T11:02:34.133Z,9.45
2019-05-26T11:05:06.599Z,16.23
2019-05-26T11:07:37.646Z,9.20
2019-05-26T11:10:08.898Z,9.25
2019-05-26T11:12:39.952Z,8.63
2019-05-26T11:15:11.426Z,8.60
2019-05-26T11:17:42.663Z,7.53
2019-05-26T11:20:14.637Z,7.62
2019-05-26T11:22:45.761Z,8.90
2019-05-26T11:25:17.519Z,7.90
2019-05-26T11:27:48.523Z,10.72
2019-05-26T11:30:19.614Z,8.25
2019-05-26T11:32:50.654Z,7.40
2019-05-26T11:35:21.771Z,6.53
2019-05-26T11:37:52.734Z,6.47
2019-05-26T11:40:23.830Z,5.55
2019-05-26T11:42:54.733Z,8.20
2019-05-26T11:45:25.781Z,6.87
2019-05-26T11:47:56.773Z,6.50
2019-05-26T11:50:27.817Z,7.22
2019-05-26T11:52:58.770Z,7.65
2019-05-26T11:55:29.816Z,7.90
2019-05-26T11:58:00.754Z,8.78
2019-05-26T12:00:31.852Z,10.70
2019-05-26T12:03:02.912Z,10.00
2019-05-26T12:05:33.979Z,9.60
2019-05-26T12:08:04.950Z,8.33
2019-05-26T12:10:36.066Z,8.25
2019-05-26T12:13:07.127Z,9.73
2019-05-26T12:15:38.310Z,7.75
2019-05-26T12:18:09.360Z,8.23
2019-05-26T12:20:40.351Z,7.55
2019-05-26T12:23:11.360Z,6.35
2019-05-26T12:25:43.008Z,6.47
2019-05-26T12:28:14.089Z,7.10
2019-05-26T12:30:45.054Z,8.40
2019-05-26T12:33:16.247Z,9.15
2019-05-26T12:35:47.296Z,9.03
2019-05-26T12:38:18.277Z,8.70
2019-05-26T12:40:49.309Z,7.72
2019-05-26T12:43:21.217Z,7.28
2019-05-26T12:45:53.807Z,7.37
2019-05-26T12:48:24.718Z,8.00
2019-05-26T12:50:55.717Z,7.97
2019-05-26T12:53:26.722Z,8.65
2019-05-26T12:55:57.829Z,8.53
2019-05-26T12:58:28.829Z,8.85
2019-05-26T13:00:59.908Z,7.90
2019-05-26T13:03:31.038Z,8.43
2019-05-26T13:06:02.167Z,7.50
2019-05-26T13:08:33.224Z,6.97
2019-05-26T13:11:04.316Z,7.03
2019-05-26T13:13:35.319Z,7.33
2019-05-26T13:16:06.264Z,7.42
2019-05-26T13:18:37.314Z,7.17
2019-05-26T13:21:08.308Z,6.90
2019-05-26T13:23:39.372Z,7.10
2019-05-26T13:26:10.368Z,7.40
2019-05-26T13:28:41.776Z,7.12
2019-05-26T13:31:15.820Z,7.00
2019-05-26T13:33:47.006Z,7.50
2019-05-26T13:36:18.031Z,7.17
2019-05-26T13:38:48.977Z,9.63
2019-05-26T13:41:20.004Z,8.00
2019-05-26T13:43:50.997Z,7.03
2019-05-26T13:46:21.945Z,7.05
2019-05-26T13:48:58.002Z,7.78
2019-05-26T13:51:29.126Z,9.68
2019-05-26T13:54:00.301Z,22.90
2019-05-26T13:56:31.520Z,17.12
2019-05-26T13:59:04.703Z,15.60
2019-05-26T14:01:35.808Z,13.15
2019-05-26T14:04:07.092Z,14.75
2019-05-26T14:06:38.136Z,12.93
2019-05-26T14:09:10.173Z,8.88
2019-05-26T14:11:41.149Z,8.95
2019-05-26T14:14:12.130Z,7.25
2019-05-26T14:16:44.662Z,11.15
2019-05-26T14:19:16.697Z,40.00
2019-05-26T14:21:47.929Z,18.60
2019-05-26T14:24:19.218Z,13.48
2019-05-26T14:26:50.245Z,10.93
2019-05-26T14:29:21.515Z,11.50
2019-05-26T14:31:52.938Z,11.22
2019-05-26T14:34:24.526Z,11.43
2019-05-26T14:36:55.744Z,12.18
2019-05-26T14:39:27.022Z,12.95
2019-05-26T14:41:58.026Z,15.45
2019-05-26T14:44:29.185Z,53.42
2019-05-26T14:47:00.214Z,19.62
2019-05-26T14:49:31.423Z,21.10
2019-05-26T14:52:02.620Z,18.92
2019-05-26T14:54:33.720Z,36.00
2019-05-26T14:57:04.989Z,18.10
2019-05-26T14:59:36.109Z,17.12
2019-05-26T15:02:07.318Z,19.00
2019-05-26T15:04:38.624Z,18.62
2019-05-26T15:07:15.514Z,17.85
2019-05-26T15:09:50.088Z,18.15
2019-05-26T15:12:24.032Z,15.80
2019-05-26T15:14:55.392Z,15.32
2019-05-26T15:17:26.625Z,28.10
2019-05-26T15:19:57.839Z,16.97
2019-05-26T15:22:28.992Z,13.38
2019-05-26T15:25:00.077Z,11.48
2019-05-26T15:27:31.681Z,14.10
2019-05-26T15:30:02.978Z,12.55
2019-05-26T15:32:34.077Z,13.00
2019-05-26T15:35:08.858Z,13.90
2019-05-26T15:37:40.041Z,13.55
2019-05-26T15:40:11.198Z,14.18
2019-05-26T15:42:42.337Z,15.32
2019-05-26T15:45:13.806Z,15.90
2019-05-26T15:47:45.001Z,16.55
2019-05-26T15:50:16.319Z,24.35
2019-05-26T15:52:47.485Z,21.70
2019-05-26T15:55:18.634Z,12.80
2019-05-26T15:57:49.925Z,10.43
2019-05-26T16:00:21.165Z,10.18
2019-05-26T16:02:52.399Z,9.60
2019-05-26T16:05:23.587Z,9.00
2019-05-26T16:07:54.559Z,8.90
2019-05-26T16:10:25.669Z,9.40
2019-05-26T16:12:56.722Z,10.55
2019-05-26T16:15:30.577Z,10.65
2019-05-26T16:18:01.903Z,10.40
2019-05-26T16:20:33.135Z,10.38
2019-05-26T16:23:04.425Z,11.10
2019-05-26T16:25:35.775Z,8.58
2019-05-26T16:28:06.789Z,21.93
2019-05-26T16:30:38.076Z,23.95
2019-05-26T16:33:09.299Z,10.50
2019-05-26T16:35:40.590Z,9.40
2019-05-26T16:38:11.644Z,9.40
2019-05-26T16:40:42.670Z,9.50
2019-05-26T16:43:13.702Z,10.05
2019-05-26T16:45:55.717Z,9.33
2019-05-26T16:48:17.592Z,10.13
2019-05-26T16:50:48.851Z,9.98
2019-05-26T16:53:23.071Z,11.00
2019-05-26T16:55:54.421Z,10.75
2019-05-26T16:58:25.640Z,10.43
2019-05-26T17:00:56.956Z,10.95
2019-05-26T17:03:28.543Z,9.05
2019-05-26T17:06:08.061Z,10.05
2019-05-26T17:08:32.720Z,8.93
2019-05-26T17:11:03.996Z,31.07
2019-05-26T17:13:37.689Z,13.85
2019-05-26T17:16:08.933Z,9.20
2019-05-26T17:18:39.977Z,9.93
2019-05-26T17:21:11.135Z,9.55
2019-05-26T17:23:42.336Z,12.85
2019-05-26T17:26:13.723Z,9.50
2019-05-26T17:28:45.026Z,11.00
2019-05-26T17:31:16.271Z,9.15
2019-05-26T17:33:47.362Z,9.80
2019-05-26T17:36:18.431Z,17.92
2019-05-26T17:38:49.877Z,12.15
2019-05-26T17:41:21.151Z,26.80
2019-05-26T17:43:52.435Z,17.48
2019-05-26T17:46:36.276Z,14.85
2019-05-26T17:49:09.671Z,13.78
2019-05-26T17:51:40.936Z,11.63
2019-05-26T17:54:13.236Z,17.77
2019-05-26T17:56:44.470Z,11.53
2019-05-26T17:59:15.683Z,10.08
2019-05-26T18:01:47.241Z,10.32
2019-05-26T18:04:18.475Z,10.63
2019-05-26T18:06:50.037Z,9.80
2019-05-26T18:09:20.994Z,10.55
2019-05-26T18:11:52.374Z,9.45
2019-05-26T18:14:23.450Z,10.25
2019-05-26T18:16:54.718Z,9.80
2019-05-26T18:19:29.469Z,9.70
2019-05-26T18:21:58.522Z,10.60
2019-05-26T18:24:29.743Z,10.40
2019-05-26T18:27:01.003Z,10.93
2019-05-26T18:29:32.359Z,15.38
2019-05-26T18:32:19.177Z,18.25
2019-05-26T18:34:50.540Z,11.30
2019-05-26T18:37:22.451Z,30.35
2019-05-26T18:39:53.803Z,14.60
2019-05-26T18:42:28.135Z,18.52
2019-05-26T18:44:59.446Z,17.40
2019-05-26T18:47:32.509Z,19.70
2019-05-26T18:50:07.263Z,25.92
2019-05-26T18:52:38.973Z,30.05
2019-05-26T18:55:10.315Z,30.52
2019-05-26T18:57:45.787Z,33.05
2019-05-26T19:00:17.199Z,31.82
2019-05-26T19:02:52.452Z,30.05
2019-05-26T19:05:33.761Z,29.32
2019-05-26T19:08:04.333Z,29.30
2019-05-26T19:10:38.489Z,31.57
2019-05-26T19:13:10.721Z,27.60
2019-05-26T19:15:43.883Z,28.67
2019-05-26T19:18:20.034Z,51.70
2019-05-26T19:20:48.487Z,39.50
2019-05-26T19:23:20.268Z,27.62
2019-05-26T19:25:51.941Z,25.80
2019-05-26T19:28:23.488Z,24.60
2019-05-26T19:30:56.438Z,24.25
2019-05-26T19:33:27.735Z,24.18
2019-05-26T19:36:00.642Z,24.12
2019-05-26T19:38:31.944Z,21.80
2019-05-26T19:41:03.224Z,21.73
2019-05-26T19:43:34.616Z,21.15
2019-05-26T19:46:10.497Z,17.23
2019-05-26T19:48:44.587Z,18.15
2019-05-26T19:51:16.187Z,16.93
2019-05-26T19:53:47.691Z,16.17
2019-05-26T19:56:19.018Z,16.42
2019-05-26T19:58:50.304Z,15.72
2019-05-26T20:01:21.657Z,14.73
2019-05-26T20:03:52.960Z,16.75
2019-05-26T20:06:24.315Z,43.35
2019-05-26T20:08:55.741Z,17.92
2019-05-26T20:11:26.981Z,16.67
2019-05-26T20:13:59.157Z,14.13
2019-05-26T20:16:30.996Z,14.83
2019-05-26T20:19:02.606Z,14.33
2019-05-26T20:21:33.954Z,12.90
2019-05-26T20:24:06.541Z,13.18
2019-05-26T20:26:38.783Z,12.63
2019-05-26T20:29:10.074Z,13.30
2019-05-26T20:31:41.453Z,13.88
2019-05-26T20:34:12.825Z,11.73
2019-05-26T20:36:44.141Z,12.05
2019-05-26T20:39:15.533Z,11.50
2019-05-26T20:41:46.985Z,11.00
2019-05-26T20:44:18.388Z,11.90
2019-05-26T20:46:52.847Z,12.20
2019-05-26T20:49:44.855Z,12.03
2019-05-26T20:52:07.316Z,12.33
2019-05-26T20:54:38.882Z,11.93
2019-05-26T20:57:10.369Z,11.28
2019-05-26T20:59:42.836Z,11.55
2019-05-26T21:02:15.458Z,11.38
2019-05-26T21:04:46.815Z,10.93
2019-05-26T21:07:18.138Z,10.72
2019-05-26T21:09:49.438Z,11.10
2019-05-26T21:12:20.793Z,10.95
2019-05-26T21:14:52.128Z,11.43
2019-05-26T21:17:23.478Z,10.68
2019-05-26T21:19:54.963Z,11.00
2019-05-26T21:22:26.344Z,11.12
2019-05-26T21:24:57.594Z,9.88
2019-05-26T21:27:29.247Z,11.53
2019-05-26T21:30:00.733Z,21.93
2019-05-26T21:32:32.035Z,10.63
2019-05-26T21:35:04.297Z,10.08
2019-05-26T21:37:35.601Z,10.10
2019-05-26T21:40:08.493Z,10.78
2019-05-26T21:42:39.826Z,10.95
2019-05-26T21:45:11.223Z,11.25
2019-05-26T21:47:42.760Z,12.10
2019-05-26T21:50:14.349Z,13.15
2019-05-26T21:52:45.671Z,13.95
2019-05-26T21:55:17.094Z,14.53
2019-05-26T21:57:48.423Z,16.27
2019-05-26T22:00:22.093Z,17.37
2019-05-26T22:02:56.246Z,18.00
2019-05-26T22:05:29.749Z,19.98
2019-05-26T22:08:01.128Z,19.98
2019-05-26T22:10:32.440Z,20.32
2019-05-26T22:13:03.736Z,19.87
2019-05-26T22:18:45.473Z,18.52
2019-05-26T22:21:26.631Z,17.27
2019-05-26T22:23:57.866Z,17.85
2019-05-26T22:26:29.239Z,16.73
2019-05-26T22:29:00.474Z,16.48
2019-05-26T22:31:31.810Z,16.25
2019-05-26T22:34:03.169Z,16.48
2019-05-26T22:36:34.502Z,16.32
2019-05-26T22:39:06.933Z,16.30
2019-05-26T22:41:38.262Z,18.57
2019-05-26T22:44:09.518Z,20.43
2019-05-26T22:46:41.222Z,18.95
2019-05-26T22:49:12.444Z,19.20
2019-05-26T22:51:43.698Z,18.80
2019-05-26T22:54:14.915Z,19.90
2019-05-26T22:56:46.199Z,19.32
2019-05-26T22:59:17.431Z,17.90
2019-05-26T23:01:48.693Z,17.05
2019-05-26T23:04:20.018Z,14.45
2019-05-26T23:06:51.283Z,13.93
2019-05-26T23:09:22.525Z,13.00
2019-05-26T23:11:53.765Z,12.90
2019-05-26T23:14:25.023Z,10.75
2019-05-26T23:16:56.313Z,11.30
2019-05-26T23:19:27.565Z,10.82
2019-05-26T23:21:58.888Z,10.23
2019-05-26T23:24:30.199Z,9.95
2019-05-26T23:27:01.478Z,10.18
2019-05-26T23:29:32.699Z,8.60
2019-05-26T23:32:04.054Z,8.20
2019-05-26T23:34:35.204Z,8.65
2019-05-26T23:37:06.962Z,8.60
2019-05-26T23:39:38.487Z,8.23
2019-05-26T23:42:09.656Z,7.78
2019-05-26T23:44:40.714Z,7.53
2019-05-26T23:47:11.883Z,7.25
2019-05-26T23:49:44.178Z,7.90
2019-05-26T23:52:19.183Z,6.95
2019-05-26T23:54:48.626Z,7.28
2019-05-26T23:57:19.737Z,6.85
2019-05-26T23:59:50.855Z,6.35
